createdAt,value
2017-08-30T00:01:07.708Z,7.40
2017-08-30T00:03:36.069Z,7.80
2017-08-30T00:06:04.477Z,5.50
2017-08-30T00:08:32.856Z,5.40
2017-08-30T00:11:01.236Z,5.00
2017-08-30T00:13:29.644Z,5.53
2017-08-30T00:15:58.023Z,4.87
2017-08-30T00:18:26.385Z,4.87
2017-08-30T00:20:54.795Z,4.93
2017-08-30T00:23:23.157Z,5.20
2017-08-30T00:26:09.145Z,4.90
2017-08-30T00:28:37.510Z,5.13
2017-08-30T00:31:05.883Z,5.07
2017-08-30T00:33:34.287Z,5.17
2017-08-30T00:36:03.535Z,4.37
2017-08-30T00:38:31.959Z,4.60
2017-08-30T00:41:00.359Z,5.20
2017-08-30T00:43:28.721Z,4.20
2017-08-30T00:45:57.082Z,4.90
2017-08-30T00:48:25.485Z,4.60
2017-08-30T00:50:53.858Z,4.37
2017-08-30T00:53:22.225Z,4.57
2017-08-30T00:55:50.630Z,4.63
2017-08-30T00:58:19.011Z,4.27
2017-08-30T01:00:47.381Z,4.80
2017-08-30T01:03:15.791Z,4.43
2017-08-30T01:05:44.176Z,4.27
2017-08-30T01:08:12.559Z,4.90
2017-08-30T01:10:40.954Z,4.70
2017-08-30T01:13:09.330Z,4.80
2017-08-30T01:15:37.722Z,4.80
2017-08-30T01:18:06.095Z,5.20
2017-08-30T01:20:34.470Z,4.73
2017-08-30T01:23:02.872Z,4.90
2017-08-30T01:25:31.274Z,4.80
2017-08-30T01:27:59.656Z,5.40
2017-08-30T01:30:28.049Z,4.97
2017-08-30T01:32:56.430Z,4.63
2017-08-30T01:35:24.821Z,5.33
2017-08-30T01:37:53.185Z,4.80
2017-08-30T01:40:21.549Z,6.27
2017-08-30T01:42:49.962Z,5.10
2017-08-30T01:45:18.355Z,4.67
2017-08-30T01:47:46.735Z,5.20
2017-08-30T01:50:15.151Z,6.27
2017-08-30T01:52:43.537Z,5.20
2017-08-30T01:55:11.904Z,5.37
2017-08-30T01:57:40.311Z,4.60
2017-08-30T02:00:08.691Z,6.23
2017-08-30T02:02:37.072Z,6.03
2017-08-30T02:05:05.471Z,5.17
2017-08-30T02:07:33.868Z,4.50
2017-08-30T02:10:02.238Z,4.80
2017-08-30T02:12:30.627Z,5.47
2017-08-30T02:14:58.995Z,5.27
2017-08-30T02:17:27.364Z,5.53
2017-08-30T02:19:55.772Z,5.50
2017-08-30T02:22:24.157Z,6.20
2017-08-30T02:24:52.550Z,4.60
2017-08-30T02:27:20.932Z,5.00
2017-08-30T02:29:49.301Z,4.83
2017-08-30T02:32:17.700Z,4.80
2017-08-30T02:34:46.070Z,4.70
2017-08-30T02:37:14.477Z,4.70
2017-08-30T02:39:42.855Z,4.83
2017-08-30T02:42:11.225Z,4.10
2017-08-30T02:44:39.625Z,4.20
2017-08-30T02:47:07.990Z,4.13
2017-08-30T02:49:36.398Z,4.60
2017-08-30T02:52:04.767Z,3.70
2017-08-30T02:54:33.172Z,3.23
2017-08-30T02:57:01.550Z,5.73
2017-08-30T02:59:29.941Z,5.00
2017-08-30T03:01:58.321Z,4.50
2017-08-30T03:04:26.688Z,4.77
2017-08-30T03:06:55.272Z,5.17
2017-08-30T03:09:23.655Z,7.00
2017-08-30T03:11:52.064Z,6.93
2017-08-30T03:14:20.436Z,4.90
2017-08-30T03:16:48.851Z,5.20
2017-08-30T03:19:17.222Z,5.53
2017-08-30T03:21:45.624Z,5.70
2017-08-30T03:24:13.989Z,4.80
2017-08-30T03:26:42.377Z,5.63
2017-08-30T03:29:10.768Z,5.30
2017-08-30T03:31:39.134Z,5.20
2017-08-30T03:34:07.536Z,4.97
2017-08-30T03:36:35.905Z,4.90
2017-08-30T03:39:04.296Z,4.80
2017-08-30T03:41:32.702Z,6.73
2017-08-30T03:44:01.062Z,7.40
2017-08-30T03:46:29.448Z,6.50
2017-08-30T03:48:57.814Z,5.40
2017-08-30T03:51:26.187Z,5.00
2017-08-30T03:53:54.596Z,5.40
2017-08-30T03:56:22.976Z,5.30
2017-08-30T03:58:51.352Z,4.73
2017-08-30T04:01:19.730Z,5.60
2017-08-30T04:03:48.102Z,4.80
2017-08-30T04:06:16.507Z,5.93
2017-08-30T04:08:44.883Z,6.20
2017-08-30T04:11:13.249Z,5.60
2017-08-30T04:13:41.638Z,7.50
2017-08-30T04:16:10.070Z,6.03
2017-08-30T04:18:38.461Z,6.63
2017-08-30T04:21:06.854Z,6.43
2017-08-30T04:23:35.232Z,8.43
2017-08-30T04:26:03.602Z,7.50
2017-08-30T04:28:31.989Z,6.33
2017-08-30T04:31:00.368Z,9.70
2017-08-30T04:33:28.745Z,8.10
2017-08-30T04:35:57.163Z,7.40
2017-08-30T04:38:25.533Z,7.47
2017-08-30T04:40:53.929Z,7.93
2017-08-30T04:43:22.316Z,7.70
2017-08-30T04:45:50.705Z,9.77
2017-08-30T04:48:19.083Z,8.93
2017-08-30T04:50:48.215Z,7.27
2017-08-30T04:53:16.611Z,9.30
2017-08-30T04:55:44.998Z,6.67
2017-08-30T04:58:13.374Z,7.30
2017-08-30T05:00:41.767Z,7.47
2017-08-30T05:03:10.144Z,6.80
2017-08-30T05:05:38.523Z,6.27
2017-08-30T05:08:06.910Z,5.43
2017-08-30T05:10:35.273Z,8.70
2017-08-30T05:13:03.680Z,8.40
2017-08-30T05:15:32.049Z,9.47
2017-08-30T05:18:00.437Z,6.20
2017-08-30T05:20:28.819Z,7.70
2017-08-30T05:22:57.231Z,6.97
2017-08-30T05:25:25.593Z,7.33
2017-08-30T05:27:53.958Z,12.03
2017-08-30T05:30:22.355Z,8.10
2017-08-30T05:32:50.745Z,7.60
2017-08-30T05:35:19.126Z,7.70
2017-08-30T05:37:47.516Z,6.30
2017-08-30T05:40:15.892Z,7.53
2017-08-30T05:42:44.267Z,7.03
2017-08-30T05:45:12.683Z,7.33
2017-08-30T05:47:41.054Z,8.17
2017-08-30T05:50:09.430Z,5.97
2017-08-30T05:52:37.833Z,5.70
2017-08-30T05:55:06.211Z,6.17
2017-08-30T05:57:34.587Z,5.97
2017-08-30T06:00:03.007Z,6.30
2017-08-30T06:02:31.370Z,5.73
2017-08-30T06:04:59.733Z,5.80
2017-08-30T06:07:28.135Z,5.13
2017-08-30T06:09:56.509Z,7.00
2017-08-30T06:12:24.884Z,5.63
2017-08-30T06:14:53.280Z,5.90
2017-08-30T06:17:21.649Z,5.00
2017-08-30T06:19:50.009Z,5.10
2017-08-30T06:22:19.667Z,4.67
2017-08-30T06:24:48.296Z,5.70
2017-08-30T06:27:17.044Z,4.90
2017-08-30T06:29:45.585Z,4.50
2017-08-30T06:32:13.977Z,4.70
2017-08-30T06:34:42.329Z,5.33
2017-08-30T06:37:10.820Z,4.80
2017-08-30T06:39:39.296Z,5.30
2017-08-30T06:42:07.657Z,5.00
2017-08-30T06:44:36.059Z,5.73
2017-08-30T06:47:04.440Z,6.17
2017-08-30T06:49:32.815Z,5.57
2017-08-30T06:52:01.220Z,5.13
2017-08-30T06:54:29.581Z,4.87
2017-08-30T06:56:57.957Z,5.20
2017-08-30T06:59:26.363Z,5.60
2017-08-30T07:01:54.724Z,5.00
2017-08-30T07:04:23.085Z,4.00
2017-08-30T07:06:51.481Z,4.60
2017-08-30T07:09:19.841Z,5.07
2017-08-30T07:11:48.224Z,4.90
2017-08-30T07:14:16.612Z,4.30
2017-08-30T07:16:44.973Z,5.80
2017-08-30T07:19:13.347Z,4.90
2017-08-30T07:21:41.739Z,5.70
2017-08-30T07:24:10.109Z,5.10
2017-08-30T07:26:38.489Z,4.10
2017-08-30T07:29:06.886Z,4.47
2017-08-30T07:31:35.259Z,4.97
2017-08-30T07:34:03.631Z,5.83
2017-08-30T07:36:32.032Z,4.40
2017-08-30T07:39:00.422Z,4.60
2017-08-30T07:41:28.789Z,5.53
2017-08-30T07:43:57.190Z,4.40
2017-08-30T07:46:25.548Z,6.20
2017-08-30T07:48:53.943Z,4.97
2017-08-30T07:51:22.352Z,5.37
2017-08-30T07:53:50.718Z,5.00
2017-08-30T07:56:19.103Z,4.30
2017-08-30T07:58:47.515Z,5.23
2017-08-30T08:01:15.937Z,4.50
2017-08-30T08:03:44.300Z,5.37
2017-08-30T08:06:12.707Z,5.33
2017-08-30T08:08:41.069Z,5.03
2017-08-30T08:11:09.429Z,4.93
2017-08-30T08:13:37.835Z,5.20
2017-08-30T08:16:06.211Z,4.30
2017-08-30T08:18:34.586Z,5.40
2017-08-30T08:21:02.980Z,5.03
2017-08-30T08:23:31.360Z,5.27
2017-08-30T08:25:59.729Z,5.13
2017-08-30T08:28:28.115Z,5.13
2017-08-30T08:30:56.501Z,4.67
2017-08-30T08:33:24.860Z,5.10
2017-08-30T08:35:53.264Z,5.30
2017-08-30T08:38:21.632Z,4.70
2017-08-30T08:40:49.997Z,5.33
2017-08-30T08:43:18.402Z,4.37
2017-08-30T08:45:46.776Z,4.93
2017-08-30T08:48:15.164Z,4.50
2017-08-30T08:50:43.571Z,5.10
2017-08-30T08:53:11.953Z,5.10
2017-08-30T08:55:40.327Z,5.93
2017-08-30T08:58:08.730Z,5.10
2017-08-30T09:00:37.107Z,4.93
2017-08-30T09:03:05.487Z,4.77
2017-08-30T09:05:33.876Z,5.30
2017-08-30T09:08:02.236Z,4.60
2017-08-30T09:10:30.609Z,4.63
2017-08-30T09:12:59.007Z,4.40
2017-08-30T09:15:27.383Z,4.73
2017-08-30T09:17:55.765Z,5.30
2017-08-30T09:20:24.160Z,5.47
2017-08-30T09:22:52.530Z,4.97
2017-08-30T09:25:20.893Z,5.00
2017-08-30T09:27:49.298Z,5.07
2017-08-30T09:30:17.662Z,4.50
2017-08-30T09:32:46.049Z,4.97
2017-08-30T09:35:14.454Z,5.40
2017-08-30T09:37:42.817Z,5.30
2017-08-30T09:40:11.181Z,5.00
2017-08-30T09:42:39.589Z,5.00
2017-08-30T09:45:07.982Z,5.27
2017-08-30T09:47:36.363Z,5.20
2017-08-30T09:50:04.778Z,5.60
2017-08-30T09:52:33.141Z,5.63
2017-08-30T09:55:01.519Z,4.97
2017-08-30T09:57:29.915Z,6.43
2017-08-30T09:59:58.293Z,5.70
2017-08-30T10:02:26.675Z,4.43
2017-08-30T10:04:55.070Z,4.73
2017-08-30T10:07:23.425Z,4.63
2017-08-30T10:09:51.795Z,4.33
2017-08-30T10:12:20.192Z,4.40
2017-08-30T10:14:48.553Z,5.27
2017-08-30T10:17:16.967Z,4.73
2017-08-30T10:19:45.340Z,4.97
2017-08-30T10:22:13.716Z,7.00
2017-08-30T10:24:42.119Z,5.13
2017-08-30T10:27:10.491Z,4.97
2017-08-30T10:29:38.895Z,5.30
2017-08-30T10:32:07.264Z,4.40
2017-08-30T10:34:35.640Z,4.20
2017-08-30T10:37:04.037Z,4.83
2017-08-30T10:39:32.427Z,4.60
2017-08-30T10:42:00.835Z,4.70
2017-08-30T10:44:29.221Z,4.70
2017-08-30T10:46:57.744Z,4.60
2017-08-30T10:49:26.138Z,4.20
2017-08-30T10:51:54.519Z,5.00
2017-08-30T10:54:22.927Z,4.70
2017-08-30T10:56:51.311Z,4.87
2017-08-30T10:59:19.712Z,4.90
2017-08-30T11:01:48.087Z,5.10
2017-08-30T11:04:16.492Z,4.90
2017-08-30T11:06:44.848Z,5.60
2017-08-30T11:09:13.235Z,4.20
2017-08-30T11:11:41.635Z,4.70
2017-08-30T11:14:10.011Z,4.10
2017-08-30T11:16:38.416Z,4.27
2017-08-30T11:19:06.787Z,4.60
2017-08-30T11:21:35.149Z,5.07
2017-08-30T11:24:03.552Z,4.23
2017-08-30T11:26:31.952Z,4.17
2017-08-30T11:29:00.345Z,4.00
2017-08-30T11:31:28.724Z,4.70
2017-08-30T11:33:57.104Z,4.17
2017-08-30T11:36:25.493Z,4.40
2017-08-30T11:38:53.864Z,4.87
2017-08-30T11:41:22.230Z,3.97
2017-08-30T11:43:50.624Z,4.50
2017-08-30T11:46:19.017Z,4.20
2017-08-30T11:48:47.406Z,4.40
2017-08-30T11:51:15.766Z,4.60
2017-08-30T11:53:44.130Z,5.83
2017-08-30T11:56:12.527Z,4.80
2017-08-30T11:58:40.903Z,4.20
2017-08-30T12:01:09.311Z,4.30
2017-08-30T12:03:37.699Z,4.10
2017-08-30T12:06:06.109Z,4.03
2017-08-30T12:08:34.483Z,3.70
2017-08-30T12:11:02.849Z,4.07
2017-08-30T12:13:31.246Z,4.03
2017-08-30T12:15:59.614Z,4.20
2017-08-30T12:18:27.989Z,4.40
2017-08-30T12:20:56.391Z,3.70
2017-08-30T12:23:24.781Z,3.83
2017-08-30T12:25:53.171Z,4.20
2017-08-30T12:28:21.576Z,3.80
2017-08-30T12:30:49.951Z,3.77
2017-08-30T12:33:18.350Z,4.63
2017-08-30T12:35:46.716Z,4.50
2017-08-30T12:38:20.567Z,4.07
2017-08-30T12:40:48.978Z,4.30
2017-08-30T12:43:17.351Z,4.87
2017-08-30T12:45:45.730Z,4.40
2017-08-30T12:48:15.003Z,5.23
2017-08-30T12:50:43.369Z,4.40
2017-08-30T12:53:11.759Z,5.13
2017-08-30T12:55:40.122Z,5.40
2017-08-30T12:58:08.485Z,4.60
2017-08-30T13:00:36.893Z,4.03
2017-08-30T13:03:05.260Z,4.60
2017-08-30T13:05:33.629Z,5.87
2017-08-30T13:08:02.022Z,4.90
2017-08-30T13:10:30.389Z,4.30
2017-08-30T13:12:58.798Z,4.90
2017-08-30T13:15:27.175Z,4.77
2017-08-30T13:17:55.537Z,4.30
2017-08-30T13:20:23.931Z,4.20
2017-08-30T13:22:52.308Z,4.80
2017-08-30T13:25:20.683Z,5.20
2017-08-30T13:27:49.084Z,4.70
2017-08-30T13:30:17.454Z,5.07
2017-08-30T13:32:45.812Z,5.17
2017-08-30T13:35:14.224Z,5.40
2017-08-30T13:37:42.591Z,5.60
2017-08-30T13:40:10.954Z,5.73
2017-08-30T13:42:39.352Z,4.50
2017-08-30T13:45:07.729Z,5.40
2017-08-30T13:47:36.096Z,5.23
2017-08-30T13:50:04.507Z,4.80
2017-08-30T13:52:32.885Z,4.93
2017-08-30T13:55:01.253Z,4.70
2017-08-30T13:57:29.654Z,5.30
2017-08-30T13:59:58.033Z,4.90
2017-08-30T14:02:26.424Z,4.77
2017-08-30T14:04:54.806Z,4.33
2017-08-30T14:07:23.215Z,4.70
2017-08-30T14:09:51.614Z,4.20
2017-08-30T14:12:20.023Z,4.73
2017-08-30T14:14:48.393Z,4.50
2017-08-30T14:17:16.766Z,4.20
2017-08-30T14:19:45.165Z,4.40
2017-08-30T14:22:13.545Z,4.13
2017-08-30T14:24:41.909Z,4.90
2017-08-30T14:27:10.319Z,3.87
2017-08-30T14:29:38.687Z,4.40
2017-08-30T14:32:07.073Z,4.60
2017-08-30T14:34:35.450Z,4.63
2017-08-30T14:37:03.827Z,4.07
2017-08-30T14:39:32.231Z,3.70
2017-08-30T14:42:00.603Z,4.23
2017-08-30T14:44:29.011Z,4.70
2017-08-30T14:46:57.584Z,4.27
2017-08-30T14:49:26.010Z,4.60
2017-08-30T14:51:54.418Z,4.60
2017-08-30T14:54:22.791Z,4.90
2017-08-30T14:56:51.149Z,4.40
2017-08-30T14:59:19.558Z,4.00
2017-08-30T15:01:47.943Z,4.57
2017-08-30T15:04:16.339Z,5.50
2017-08-30T15:06:44.744Z,5.00
2017-08-30T15:09:13.129Z,5.63
2017-08-30T15:11:41.533Z,5.40
2017-08-30T15:14:09.897Z,5.03
2017-08-30T15:16:38.261Z,5.37
2017-08-30T15:19:06.666Z,5.33
2017-08-30T15:21:35.029Z,5.67
2017-08-30T15:24:03.405Z,5.33
2017-08-30T15:26:31.783Z,5.80
2017-08-30T15:29:00.533Z,5.20
2017-08-30T15:31:28.925Z,6.00
2017-08-30T15:33:57.494Z,5.53
2017-08-30T15:36:26.084Z,5.50
2017-08-30T15:38:55.166Z,5.00
2017-08-30T15:41:23.588Z,5.23
2017-08-30T15:43:51.995Z,5.20
2017-08-30T15:46:20.393Z,6.30
2017-08-30T15:48:48.753Z,5.20
2017-08-30T15:51:17.552Z,6.03
2017-08-30T15:53:45.995Z,5.90
2017-08-30T15:56:14.788Z,5.17
2017-08-30T15:58:43.172Z,5.63
2017-08-30T16:01:11.551Z,5.30
2017-08-30T16:03:39.945Z,5.37
2017-08-30T16:06:08.482Z,6.00
2017-08-30T16:08:36.897Z,5.33
2017-08-30T16:11:05.294Z,5.40
2017-08-30T16:13:33.675Z,5.60
2017-08-30T16:16:02.103Z,4.83
2017-08-30T16:18:30.491Z,5.60
2017-08-30T16:20:58.897Z,5.00
2017-08-30T16:23:27.280Z,4.90
2017-08-30T16:25:56.293Z,4.70
2017-08-30T16:28:24.782Z,5.70
2017-08-30T16:30:53.171Z,5.00
2017-08-30T16:33:21.579Z,4.77
2017-08-30T16:35:49.956Z,5.10
2017-08-30T16:38:18.366Z,4.70
2017-08-30T16:40:46.739Z,5.40
2017-08-30T16:43:15.982Z,4.83
2017-08-30T16:45:44.362Z,5.10
2017-08-30T16:48:12.772Z,5.23
2017-08-30T16:50:41.149Z,5.00
2017-08-30T16:53:09.517Z,4.50
2017-08-30T16:55:37.923Z,4.43
2017-08-30T16:58:06.287Z,4.60
2017-08-30T17:00:34.646Z,5.07
2017-08-30T17:03:03.047Z,4.93
2017-08-30T17:05:31.412Z,4.97
2017-08-30T17:07:59.783Z,4.50
2017-08-30T17:10:28.184Z,4.17
2017-08-30T17:12:56.554Z,4.53
2017-08-30T17:15:24.938Z,5.10
2017-08-30T17:17:53.345Z,4.80
2017-08-30T17:20:21.709Z,4.57
2017-08-30T17:22:50.107Z,4.07
2017-08-30T17:25:18.512Z,5.30
2017-08-30T17:27:46.874Z,3.83
2017-08-30T17:30:15.273Z,4.40
2017-08-30T17:32:43.677Z,4.50
2017-08-30T17:35:12.084Z,4.80
2017-08-30T17:37:41.401Z,4.60
2017-08-30T17:40:09.825Z,4.43
2017-08-30T17:42:38.185Z,4.83
2017-08-30T17:45:06.550Z,4.90
2017-08-30T17:47:34.951Z,18.27
2017-08-30T17:50:03.336Z,4.97
2017-08-30T17:52:31.736Z,4.30
2017-08-30T17:55:00.194Z,3.90
2017-08-30T17:57:28.565Z,4.40
2017-08-30T17:59:56.940Z,4.30
2017-08-30T18:02:25.315Z,3.93
2017-08-30T18:04:53.713Z,4.30
2017-08-30T18:07:22.088Z,3.90
2017-08-30T18:09:50.470Z,4.20
2017-08-30T18:12:18.851Z,3.53
2017-08-30T18:14:47.229Z,3.87
2017-08-30T18:17:15.670Z,4.07
2017-08-30T18:19:44.055Z,7.67
2017-08-30T18:22:12.425Z,4.27
2017-08-30T18:24:40.821Z,4.00
2017-08-30T18:27:09.195Z,4.07
2017-08-30T18:29:37.596Z,3.90
2017-08-30T18:32:05.992Z,3.63
2017-08-30T18:34:34.383Z,3.80
2017-08-30T18:37:02.793Z,3.50
2017-08-30T18:39:31.188Z,4.77
2017-08-30T18:41:59.587Z,3.60
2017-08-30T18:44:27.958Z,3.93
2017-08-30T18:46:56.392Z,3.03
2017-08-30T18:49:24.789Z,3.40
2017-08-30T18:51:53.169Z,4.40
2017-08-30T18:54:21.565Z,4.60
2017-08-30T18:56:49.943Z,4.10
2017-08-30T18:59:18.312Z,3.23
2017-08-30T19:01:46.704Z,3.37
2017-08-30T19:04:15.081Z,3.63
2017-08-30T19:06:43.484Z,3.90
2017-08-30T19:09:11.864Z,4.40
2017-08-30T19:11:40.230Z,4.03
2017-08-30T19:14:08.642Z,3.97
2017-08-30T19:16:37.020Z,3.70
2017-08-30T19:19:05.426Z,3.80
2017-08-30T19:21:33.816Z,3.50
2017-08-30T19:24:02.224Z,3.43
2017-08-30T19:26:30.601Z,3.77
2017-08-30T19:28:58.996Z,4.10
2017-08-30T19:31:27.361Z,4.30
2017-08-30T19:33:55.725Z,3.33
2017-08-30T19:36:24.109Z,3.53
2017-08-30T19:38:52.469Z,4.23
2017-08-30T19:41:20.861Z,3.47
2017-08-30T19:43:49.248Z,3.90
2017-08-30T19:46:17.627Z,3.87
2017-08-30T19:48:46.025Z,3.80
2017-08-30T19:51:14.401Z,3.80
2017-08-30T19:53:42.800Z,4.10
2017-08-30T19:56:11.169Z,3.73
2017-08-30T19:58:39.560Z,4.17
2017-08-30T20:01:07.940Z,4.40
2017-08-30T20:03:36.319Z,3.43
2017-08-30T20:06:04.717Z,3.90
2017-08-30T20:08:33.121Z,5.23
2017-08-30T20:11:01.499Z,3.90
2017-08-30T20:13:29.876Z,3.70
2017-08-30T20:15:58.280Z,3.60
2017-08-30T20:18:26.646Z,3.43
2017-08-30T20:20:55.049Z,3.60
2017-08-30T20:23:23.422Z,3.70
2017-08-30T20:25:51.808Z,3.70
2017-08-30T20:28:20.235Z,3.10
2017-08-30T20:30:48.611Z,2.90
2017-08-30T20:33:16.987Z,3.70
2017-08-30T20:35:45.822Z,3.20
2017-08-30T20:38:14.224Z,3.33
2017-08-30T20:40:42.622Z,3.13
2017-08-30T20:43:11.697Z,3.90
2017-08-30T20:45:40.924Z,4.00
2017-08-30T20:48:09.378Z,4.27
2017-08-30T20:50:37.885Z,3.73
2017-08-30T20:53:06.318Z,3.40
2017-08-30T20:55:34.682Z,2.80
2017-08-30T20:58:03.164Z,3.53
2017-08-30T21:00:31.548Z,3.23
2017-08-30T21:02:59.971Z,3.30
2017-08-30T21:05:28.378Z,2.87
2017-08-30T21:07:56.756Z,3.33
2017-08-30T21:10:25.116Z,3.30
2017-08-30T21:12:53.505Z,3.00
2017-08-30T21:15:21.886Z,3.40
2017-08-30T21:17:50.257Z,2.90
2017-08-30T21:20:18.641Z,3.10
2017-08-30T21:22:47.002Z,2.80
2017-08-30T21:25:15.368Z,3.33
2017-08-30T21:27:43.770Z,2.90
2017-08-30T21:30:12.137Z,3.40
2017-08-30T21:32:40.498Z,3.00
2017-08-30T21:35:08.890Z,3.03
2017-08-30T21:37:37.258Z,3.37
2017-08-30T21:40:05.628Z,3.10
2017-08-30T21:42:34.033Z,3.30
2017-08-30T21:45:02.392Z,3.30
2017-08-30T21:47:30.776Z,2.53
2017-08-30T21:49:59.176Z,3.17
2017-08-30T21:52:27.548Z,2.90
2017-08-30T21:54:55.952Z,3.40
2017-08-30T21:57:24.339Z,3.23
2017-08-30T21:59:52.719Z,3.00
2017-08-30T22:02:21.116Z,2.77
2017-08-30T22:04:49.492Z,2.50
2017-08-30T22:07:17.849Z,3.10
2017-08-30T22:09:46.246Z,2.90
2017-08-30T22:12:14.605Z,3.10
2017-08-30T22:14:42.985Z,3.10
2017-08-30T22:17:11.377Z,3.20
2017-08-30T22:19:39.753Z,2.93
2017-08-30T22:22:08.145Z,2.60
2017-08-30T22:24:36.508Z,2.50
2017-08-30T22:27:04.868Z,2.70
2017-08-30T22:29:33.277Z,3.27
2017-08-30T22:32:01.656Z,3.20
2017-08-30T22:34:30.040Z,2.73
2017-08-30T22:36:58.456Z,3.00
2017-08-30T22:39:26.821Z,3.50
2017-08-30T22:41:55.185Z,2.53
2017-08-30T22:44:23.579Z,2.70
2017-08-30T22:46:51.943Z,2.80
2017-08-30T22:49:20.302Z,3.00
2017-08-30T22:51:48.707Z,2.80
2017-08-30T22:54:17.115Z,3.90
2017-08-30T22:56:45.509Z,3.03
2017-08-30T22:59:13.896Z,3.30
2017-08-30T23:01:42.306Z,2.97
2017-08-30T23:04:10.707Z,2.90
2017-08-30T23:06:39.130Z,2.73
2017-08-30T23:09:07.497Z,3.60
2017-08-30T23:11:35.887Z,2.90
2017-08-30T23:14:04.286Z,3.23
2017-08-30T23:16:32.656Z,3.27
2017-08-30T23:19:01.017Z,3.83
2017-08-30T23:21:29.405Z,2.83
2017-08-30T23:23:57.793Z,3.10
2017-08-30T23:26:26.172Z,7.90
2017-08-30T23:28:54.576Z,5.33
2017-08-30T23:31:22.951Z,3.10
2017-08-30T23:33:51.330Z,3.47
2017-08-30T23:36:19.722Z,3.43
2017-08-30T23:38:48.086Z,2.80
2017-08-30T23:41:16.468Z,3.53
2017-08-30T23:43:44.844Z,3.00
2017-08-30T23:46:13.217Z,3.50
2017-08-30T23:48:41.611Z,2.90
2017-08-30T23:51:09.983Z,3.43
2017-08-30T23:53:38.388Z,3.10
2017-08-30T23:56:06.761Z,2.67
2017-08-30T23:58:35.157Z,2.80
